Time;durP1;ratioP1;P1;durP2;ratioP2;P2;SDS_P1;SDS_P2;PMS_P1;PMS_P2;Temp;Humidity;BMP_temperature;BMP_pressure;BME280_temperature;BME280_humidity;BME280_pressure;Samples;Min_cycle;Max_cycle;Signal;HPM_P1;HPM_P2
2022/09/09 00:01:15;;;;;;;2.83;1.80;;;-40.00;99.90;;;;;;5096246;28;20189;-74
2022/09/09 00:04:23;;;;;;;2.40;1.77;;;-40.00;99.90;;;;;;5096288;28;20684;-74
2022/09/09 00:07:14;;;;;;;4.87;2.00;;;-40.00;99.90;;;;;;5096209;28;20167;-72
2022/09/09 00:09:49;;;;;;;7.20;1.93;;;-40.00;99.90;;;;;;5096303;28;20163;-75
2022/09/09 00:12:36;;;;;;;2.33;1.13;;;-40.00;99.90;;;;;;5096372;28;20166;-72
2022/09/09 00:15:14;;;;;;;1.73;1.63;;;-40.00;99.90;;;;;;5095856;28;20244;-78
2022/09/09 00:18:09;;;;;;;5.73;1.80;;;-40.00;99.90;;;;;;5096352;28;20167;-70
2022/09/09 00:20:38;;;;;;;2.30;1.53;;;-40.00;99.90;;;;;;5091436;28;20262;-75
2022/09/09 00:23:24;;;;;;;4.80;1.97;;;-40.00;99.90;;;;;;5094960;28;20195;-75
2022/09/09 00:26:11;;;;;;;5.80;2.00;;;-40.00;99.90;;;;;;5095566;28;20206;-75
2022/09/09 00:28:45;;;;;;;8.13;2.07;;;-40.00;99.90;;;;;;5095886;28;20174;-75
2022/09/09 00:31:20;;;;;;;2.57;1.30;;;-40.00;99.90;;;;;;5095711;28;20202;-70
2022/09/09 00:33:47;;;;;;;5.53;1.53;;;-40.00;99.90;;;;;;5096148;28;20215;-75
2022/09/09 00:36:17;;;;;;;3.37;1.43;;;-40.00;99.90;;;;;;5095892;28;20163;-74
2022/09/09 00:38:53;;;;;;;6.13;2.20;;;-40.00;99.90;;;;;;5096053;28;20194;-76
2022/09/09 00:41:31;;;;;;;6.33;1.90;;;-40.00;99.90;;;;;;5095778;28;20163;-77
2022/09/09 00:44:18;;;;;;;5.67;2.00;;;-40.00;99.90;;;;;;5095561;28;20200;-68
2022/09/09 00:47:09;;;;;;;2.57;1.17;;;-40.00;99.90;;;;;;5095877;28;20174;-72
2022/09/09 00:50:00;;;;;;;7.50;2.00;;;-40.00;99.90;;;;;;5076212;28;20175;-74
2022/09/09 00:52:30;;;;;;;24.77;2.27;;;-40.00;99.90;;;;;;5095775;28;20207;-69
2022/09/09 00:54:56;;;;;;;3.93;1.53;;;-40.00;99.90;;;;;;5095683;28;20616;-73
2022/09/09 00:57:34;;;;;;;7.53;1.50;;;-40.00;99.90;;;;;;5095865;28;20158;-75
2022/09/09 01:00:23;;;;;;;7.90;1.47;;;-40.00;99.90;;;;;;5095185;28;20608;-74
2022/09/09 01:02:51;;;;;;;7.03;2.20;;;-40.00;99.90;;;;;;5094550;28;20228;-69
2022/09/09 01:05:26;;;;;;;3.77;1.60;;;-40.00;99.90;;;;;;5095557;28;20174;-78
2022/09/09 01:07:51;;;;;;;4.00;1.87;;;-40.00;99.90;;;;;;5095750;28;20174;-68
2022/09/09 01:10:31;;;;;;;5.70;2.20;;;-40.00;99.90;;;;;;5095606;28;20219;-75
2022/09/09 01:13:02;;;;;;;4.17;1.63;;;-40.00;99.90;;;;;;5095402;28;20205;-75
2022/09/09 01:15:31;;;;;;;3.10;2.03;;;-40.00;99.90;;;;;;5095618;28;20171;-72
2022/09/09 01:18:10;;;;;;;10.07;2.03;;;-40.00;99.90;;;;;;5095735;28;20178;-76
2022/09/09 01:21:03;;;;;;;14.13;2.87;;;-40.00;99.90;;;;;;5094275;28;20174;-74
2022/09/09 01:23:43;;;;;;;2.60;1.90;;;-40.00;99.90;;;;;;5095767;28;20203;-76
2022/09/09 01:26:24;;;;;;;4.60;1.70;;;-40.00;99.90;;;;;;5099270;28;20537;-77
2022/09/09 01:28:52;;;;;;;9.53;1.90;;;-40.00;99.90;;;;;;5098003;28;20189;-75
2022/09/09 01:31:23;;;;;;;11.60;2.50;;;-40.00;99.90;;;;;;5099313;28;20173;-68
2022/09/09 01:33:49;;;;;;;11.20;2.60;;;-40.00;99.90;;;;;;5099255;28;20217;-75
2022/09/09 01:36:45;;;;;;;5.10;2.53;;;-40.00;99.90;;;;;;5099184;28;20467;-72
2022/09/09 01:39:12;;;;;;;6.13;1.50;;;-40.00;99.90;;;;;;5079250;28;20183;-74
2022/09/09 01:41:38;;;;;;;3.37;1.97;;;-40.00;99.90;;;;;;5097982;28;20178;-72
2022/09/09 01:44:05;;;;;;;5.80;2.47;;;-40.00;99.90;;;;;;5098831;28;20240;-69
2022/09/09 01:46:31;;;;;;;15.10;3.27;;;-40.00;99.90;;;;;;5098885;28;20167;-74
2022/09/09 01:48:58;;;;;;;7.90;2.57;;;-40.00;99.90;;;;;;5099132;28;20170;-69
2022/09/09 01:51:24;;;;;;;5.50;2.70;;;-40.00;99.90;;;;;;5098745;28;20193;-72
2022/09/09 01:53:50;;;;;;;7.07;2.97;;;-40.00;99.90;;;;;;5099034;28;20175;-75
2022/09/09 01:56:24;;;;;;;5.17;2.87;;;-40.00;99.90;;;;;;5098416;28;20166;-75
2022/09/09 01:59:20;;;;;;;6.53;2.70;;;-40.00;99.90;;;;;;5098670;28;20252;-74
2022/09/09 02:01:58;;;;;;;7.00;2.80;;;-40.00;99.90;;;;;;5097551;28;20212;-73
2022/09/09 02:04:49;;;;;;;3.30;1.77;;;-40.00;99.90;;;;;;5098605;28;20198;-75
2022/09/09 02:07:22;;;;;;;9.90;2.70;;;-40.00;99.90;;;;;;5098453;28;20163;-77
2022/09/09 02:09:57;;;;;;;5.97;2.00;;;-40.00;99.90;;;;;;5098662;28;20167;-76
2022/09/09 02:12:25;;;;;;;10.50;2.27;;;-40.00;99.90;;;;;;5098441;28;20596;-74
2022/09/09 02:14:57;;;;;;;5.80;2.00;;;-40.00;99.90;;;;;;5098599;28;20304;-73
2022/09/09 02:17:31;;;;;;;9.40;2.57;;;-40.00;99.90;;;;;;5098327;28;20170;-75
2022/09/09 02:20:14;;;;;;;10.33;2.67;;;-40.00;99.90;;;;;;5098404;28;20170;-74
2022/09/09 02:22:43;;;;;;;7.73;3.40;;;-40.00;99.90;;;;;;5098182;28;20494;-71
2022/09/09 02:25:12;;;;;;;5.93;1.77;;;-40.00;99.90;;;;;;5098280;28;20643;-75
2022/09/09 02:27:41;;;;;;;10.17;3.10;;;-40.00;99.90;;;;;;5097904;28;20576;-76
2022/09/09 02:30:08;;;;;;;13.03;2.87;;;-40.00;99.90;;;;;;5098510;28;20163;-70
2022/09/09 02:32:36;;;;;;;11.43;2.30;;;-40.00;99.90;;;;;;5098086;28;20620;-71
2022/09/09 02:35:07;;;;;;;7.33;2.60;;;-40.00;99.90;;;;;;5097338;28;20160;-75
2022/09/09 02:37:37;;;;;;;10.77;2.90;;;-40.00;99.90;;;;;;5097795;28;20163;-73
2022/09/09 02:40:05;;;;;;;7.47;2.57;;;-40.00;99.90;;;;;;5097937;28;20163;-71
2022/09/09 02:42:31;;;;;;;10.50;3.23;;;-40.00;99.90;;;;;;5097771;28;20159;-72
2022/09/09 02:44:57;;;;;;;18.97;3.03;;;-40.00;99.90;;;;;;5097943;28;20515;-73
2022/09/09 02:47:39;;;;;;;7.50;2.80;;;-40.00;99.90;;;;;;5097804;28;20249;-72
2022/09/09 02:50:29;;;;;;;15.40;3.00;;;-40.00;99.90;;;;;;5097933;28;20167;-76
2022/09/09 02:53:03;;;;;;;22.67;3.30;;;-40.00;99.90;;;;;;5097730;28;20172;-76
2022/09/09 02:55:36;;;;;;;11.57;3.93;;;-40.00;99.90;;;;;;5097350;28;20581;-74
2022/09/09 02:58:05;;;;;;;7.80;2.97;;;-40.00;99.90;;;;;;5097633;28;20201;-75
2022/09/09 03:00:32;;;;;;;8.23;2.80;;;-40.00;99.90;;;;;;5096358;28;20542;-72
2022/09/09 03:02:58;;;;;;;8.20;2.57;;;-40.00;99.90;;;;;;5097529;28;20190;-69
2022/09/09 03:05:24;;;;;;;9.10;3.03;;;-40.00;99.90;;;;;;5097636;28;20501;-67
2022/09/09 03:07:50;;;;;;;9.80;3.93;;;-40.00;99.90;;;;;;5097522;28;20220;-71
2022/09/09 03:10:17;;;;;;;17.60;4.50;;;-40.00;99.90;;;;;;5097253;28;20155;-68
2022/09/09 03:12:43;;;;;;;7.60;3.13;;;-40.00;99.90;;;;;;5097469;28;20173;-69
2022/09/09 03:15:09;;;;;;;4.93;1.90;;;-40.00;99.90;;;;;;5097317;28;20648;-69
2022/09/09 03:17:35;;;;;;;8.30;2.87;;;-40.00;99.90;;;;;;5097307;28;20167;-68
2022/09/09 03:20:03;;;;;;;10.00;3.17;;;-40.00;99.90;;;;;;5097349;28;20254;-70
2022/09/09 03:22:29;;;;;;;9.23;3.20;;;-40.00;99.90;;;;;;5097458;28;20201;-70
2022/09/09 03:24:55;;;;;;;11.37;3.30;;;-40.00;99.90;;;;;;5096791;28;20163;-69
2022/09/09 03:27:20;;;;;;;15.40;3.57;;;-40.00;99.90;;;;;;5096121;28;20171;-68
2022/09/09 03:29:46;;;;;;;18.10;3.93;;;-40.00;99.90;;;;;;5095969;28;20207;-68
2022/09/09 03:32:13;;;;;;;7.63;3.57;;;-40.00;99.90;;;;;;5097137;28;20209;-68
2022/09/09 03:34:42;;;;;;;11.47;3.60;;;-40.00;99.90;;;;;;5096834;28;20235;-70
2022/09/09 03:37:07;;;;;;;10.10;2.97;;;-40.00;99.90;;;;;;5097123;28;20609;-71
2022/09/09 03:39:33;;;;;;;9.50;2.80;;;-40.00;99.90;;;;;;5096558;28;20171;-68
2022/09/09 03:41:59;;;;;;;13.27;3.83;;;-40.00;99.90;;;;;;5096917;28;20174;-67
2022/09/09 03:44:25;;;;;;;8.07;3.20;;;-40.00;99.90;;;;;;5096584;28;20198;-71
2022/09/09 03:46:50;;;;;;;17.23;4.07;;;-40.00;99.90;;;;;;5095108;28;20466;-70
2022/09/09 03:49:16;;;;;;;14.57;3.80;;;-40.00;99.90;;;;;;5096589;28;20204;-70
2022/09/09 03:51:42;;;;;;;6.00;2.30;;;-40.00;99.90;;;;;;5096727;28;20187;-67
2022/09/09 03:54:10;;;;;;;10.20;3.03;;;-40.00;99.90;;;;;;5096446;28;20170;-68
2022/09/09 03:56:36;;;;;;;14.50;3.97;;;-40.00;99.90;;;;;;5096505;28;20497;-70
2022/09/09 03:59:03;;;;;;;12.77;3.33;;;-40.00;99.90;;;;;;5096363;28;20550;-68
2022/09/09 04:01:28;;;;;;;9.30;2.47;;;-40.00;99.90;;;;;;5096107;28;20175;-70
2022/09/09 04:03:57;;;;;;;16.90;3.80;;;-40.00;99.90;;;;;;5096241;28;20205;-70
2022/09/09 04:06:24;;;;;;;9.30;3.67;;;-40.00;99.90;;;;;;5096376;28;20247;-70
2022/09/09 04:08:52;;;;;;;12.87;3.83;;;-40.00;99.90;;;;;;5096100;28;20221;-72
2022/09/09 04:11:18;;;;;;;10.63;3.63;;;-40.00;99.90;;;;;;5096353;28;20155;-70
2022/09/09 04:13:44;;;;;;;11.43;3.37;;;-40.00;99.90;;;;;;5096171;28;20185;-69
2022/09/09 04:16:12;;;;;;;14.83;4.50;;;-40.00;99.90;;;;;;5096285;28;20195;-70
2022/09/09 04:18:38;;;;;;;8.30;3.87;;;-40.00;99.90;;;;;;5096237;28;20179;-69
2022/09/09 04:21:06;;;;;;;18.67;3.40;;;-40.00;99.90;;;;;;5096541;28;20440;-68
2022/09/09 04:23:34;;;;;;;5.90;2.77;;;-40.00;99.90;;;;;;5095913;28;20197;-69
2022/09/09 04:26:00;;;;;;;5.77;2.63;;;-40.00;99.90;;;;;;5095988;28;20212;-66
2022/09/09 04:28:29;;;;;;;8.17;3.83;;;-40.00;99.90;;;;;;5095935;28;20162;-68
2022/09/09 04:30:56;;;;;;;10.50;4.27;;;-40.00;99.90;;;;;;5096048;28;20171;-71
2022/09/09 04:33:26;;;;;;;12.93;3.60;;;-40.00;99.90;;;;;;5096058;28;20166;-67
2022/09/09 04:35:53;;;;;;;15.77;3.40;;;-40.00;99.90;;;;;;5095691;28;20201;-68
2022/09/09 04:38:20;;;;;;;9.37;3.80;;;-40.00;99.90;;;;;;5095987;28;20510;-67
2022/09/09 04:40:51;;;;;;;9.50;3.40;;;-40.00;99.90;;;;;;5095940;28;20251;-67
2022/09/09 04:43:18;;;;;;;11.63;3.17;;;-40.00;99.90;;;;;;5095756;28;20269;-68
2022/09/09 04:45:47;;;;;;;9.23;3.03;;;-40.00;99.90;;;;;;5095801;28;20167;-69
2022/09/09 04:48:13;;;;;;;6.67;3.20;;;-40.00;99.90;;;;;;5095901;28;20221;-68
2022/09/09 04:50:40;;;;;;;8.37;3.03;;;-40.00;99.90;;;;;;5095333;28;20257;-69
2022/09/09 04:53:06;;;;;;;15.70;4.27;;;-39.70;99.90;;;;;;5095952;28;20182;-71
2022/09/09 04:55:33;;;;;;;10.93;2.73;;;-40.00;99.90;;;;;;5095564;28;20171;-69
2022/09/09 04:58:04;;;;;;;8.73;3.93;;;-40.00;99.90;;;;;;5094826;28;20188;-69
2022/09/09 05:00:30;;;;;;;15.73;3.33;;;-40.00;99.90;;;;;;5099156;28;20209;-68
2022/09/09 05:02:56;;;;;;;16.47;5.47;;;-40.00;99.90;;;;;;5098841;28;20210;-66
2022/09/09 05:05:22;;;;;;;8.47;3.73;;;-40.00;99.90;;;;;;5099343;28;20162;-69
2022/09/09 05:07:49;;;;;;;11.03;3.80;;;-40.00;99.90;;;;;;5099753;28;20313;-70
2022/09/09 05:10:16;;;;;;;10.97;4.07;;;-40.00;99.90;;;;;;5099654;28;20166;-68
2022/09/09 05:12:42;;;;;;;13.23;3.80;;;-40.00;99.90;;;;;;5099597;28;20205;-73
2022/09/09 05:15:09;;;;;;;12.17;4.07;;;-40.00;99.90;;;;;;5099527;28;20206;-69
2022/09/09 05:17:35;;;;;;;13.90;4.77;;;-40.00;99.90;;;;;;5099566;28;20566;-72
2022/09/09 05:20:02;;;;;;;8.50;3.80;;;-40.00;99.90;;;;;;5099356;28;20163;-64
2022/09/09 05:22:28;;;;;;;12.63;3.27;;;-40.00;99.90;;;;;;5099390;28;20159;-67
2022/09/09 05:24:54;;;;;;;10.53;3.27;;;-40.00;99.90;;;;;;5099489;28;20508;-68
2022/09/09 05:27:20;;;;;;;12.57;4.87;;;-40.00;99.90;;;;;;5098296;28;20177;-68
2022/09/09 05:29:46;;;;;;;12.93;4.33;;;-40.00;99.90;;;;;;5099700;28;20223;-68
2022/09/09 05:32:13;;;;;;;15.03;3.30;;;-40.00;99.90;;;;;;5099281;28;20170;-68
2022/09/09 05:34:39;;;;;;;17.17;3.83;;;-40.00;99.90;;;;;;5099193;28;20486;-67
2022/09/09 05:37:07;;;;;;;13.43;3.87;;;-40.00;99.90;;;;;;5099200;28;20283;-66
2022/09/09 05:39:33;;;;;;;9.47;3.40;;;-40.00;99.90;;;;;;5099236;28;20212;-68
2022/09/09 05:41:59;;;;;;;11.33;4.70;;;-40.00;99.90;;;;;;5099082;28;20224;-67
2022/09/09 05:44:27;;;;;;;15.20;4.27;;;-40.00;99.90;;;;;;5098848;28;20194;-66
2022/09/09 05:46:54;;;;;;;9.97;3.50;;;-40.00;99.90;;;;;;5098872;28;20158;-68
2022/09/09 05:49:21;;;;;;;7.23;3.27;;;-40.00;99.90;;;;;;5098764;28;20162;-66
2022/09/09 05:51:47;;;;;;;14.00;3.73;;;-40.00;99.90;;;;;;5098786;28;20178;-66
2022/09/09 05:54:15;;;;;;;10.87;3.03;;;-40.00;99.90;;;;;;5098923;28;20163;-65
2022/09/09 05:56:41;;;;;;;11.67;3.80;;;-40.00;99.90;;;;;;5098683;28;20167;-68
2022/09/09 05:59:07;;;;;;;9.27;3.97;;;-40.00;99.90;;;;;;5098586;28;20210;-70
2022/09/09 06:01:35;;;;;;;9.10;3.50;;;-40.00;99.90;;;;;;5097454;28;20574;-67
2022/09/09 06:04:03;;;;;;;16.63;4.43;;;-39.60;99.90;;;;;;5098396;28;20225;-67
2022/09/09 06:06:39;;;;;;;11.00;4.37;;;-39.80;99.90;;;;;;5098407;28;20589;-68
2022/09/09 06:09:09;;;;;;;7.43;3.00;;;-40.00;99.90;;;;;;5098676;28;20163;-74
2022/09/09 06:11:37;;;;;;;13.00;5.00;;;-40.00;99.90;;;;;;5098304;28;20193;-66
2022/09/09 06:14:03;;;;;;;9.03;2.67;;;-40.00;99.90;;;;;;5097530;28;20221;-69
2022/09/09 06:16:32;;;;;;;14.30;3.60;;;-40.00;99.90;;;;;;5098224;28;20176;-68
2022/09/09 06:18:59;;;;;;;9.80;3.43;;;-40.00;99.90;;;;;;5098222;28;20167;-68
2022/09/09 06:21:38;;;;;;;17.97;4.33;;;-40.00;99.90;;;;;;5098115;28;20194;-71
2022/09/09 06:24:05;;;;;;;6.80;2.53;;;-38.80;99.90;;;;;;5098116;28;20194;-70
2022/09/09 06:26:40;;;;;;;7.77;3.20;;;-40.00;99.90;;;;;;5098063;28;20155;-71
2022/09/09 06:29:07;;;;;;;7.20;3.90;;;-40.00;99.90;;;;;;5098249;28;20181;-70
2022/09/09 06:31:36;;;;;;;15.13;3.77;;;-40.00;99.90;;;;;;5098118;28;20281;-75
2022/09/09 06:34:05;;;;;;;10.43;2.87;;;-40.00;99.90;;;;;;5097864;28;20174;-70
2022/09/09 06:36:33;;;;;;;9.20;3.50;;;-40.00;99.90;;;;;;5098041;28;20212;-74
2022/09/09 06:38:59;;;;;;;13.57;3.90;;;-40.00;99.90;;;;;;5098074;28;20451;-73
2022/09/09 06:41:27;;;;;;;6.90;2.47;;;-40.00;99.90;;;;;;5098078;28;20245;-69
2022/09/09 06:43:55;;;;;;;9.10;3.43;;;-40.00;99.90;;;;;;5096714;28;20549;-69
2022/09/09 06:46:30;;;;;;;5.83;2.70;;;-40.00;99.90;;;;;;5096423;28;20169;-71
2022/09/09 06:48:59;;;;;;;9.20;2.40;;;-38.30;99.90;;;;;;5097831;28;20163;-70
2022/09/09 06:51:30;;;;;;;12.47;3.47;;;-40.00;99.90;;;;;;5097787;28;20269;-72
2022/09/09 06:53:58;;;;;;;14.67;4.33;;;-40.00;99.90;;;;;;5097763;28;20273;-74
2022/09/09 06:56:27;;;;;;;8.63;3.23;;;-40.00;99.90;;;;;;5097746;28;20250;-70
2022/09/09 06:58:55;;;;;;;9.13;2.27;;;-40.00;99.90;;;;;;5097428;28;20201;-72
2022/09/09 07:01:30;;;;;;;9.03;2.37;;;-40.00;99.90;;;;;;5097352;28;20179;-71
2022/09/09 07:03:58;;;;;;;10.97;3.07;;;-40.00;99.90;;;;;;5097542;28;20218;-74
2022/09/09 07:06:29;;;;;;;20.80;5.00;;;-40.00;99.90;;;;;;5097532;28;20163;-69
2022/09/09 07:08:58;;;;;;;9.40;2.83;;;-40.00;99.90;;;;;;5097539;28;20472;-68
2022/09/09 07:11:31;;;;;;;11.10;2.47;;;-40.00;99.90;;;;;;5097424;28;20574;-73
2022/09/09 07:13:58;;;;;;;18.00;3.43;;;-40.00;99.90;;;;;;5097327;28;20167;-76
2022/09/09 07:16:25;;;;;;;11.47;4.10;;;-40.00;99.90;;;;;;5097029;28;20166;-74
2022/09/09 07:18:52;;;;;;;6.97;2.93;;;-40.00;99.90;;;;;;5097277;28;20171;-74
2022/09/09 07:21:20;;;;;;;13.13;3.53;;;-40.00;99.90;;;;;;5095686;28;20175;-74
2022/09/09 07:23:46;;;;;;;11.33;3.80;;;-40.00;99.90;;;;;;5096988;28;20544;-72
2022/09/09 07:26:17;;;;;;;20.37;3.93;;;-40.00;99.90;;;;;;5097127;28;20249;-74
2022/09/09 07:28:43;;;;;;;10.03;3.20;;;-40.00;99.90;;;;;;5096785;28;20159;-70
2022/09/09 07:31:21;;;;;;;11.73;3.00;;;-40.00;99.90;;;;;;5096986;28;20239;-67
2022/09/09 07:33:48;;;;;;;17.57;3.57;;;-40.00;99.90;;;;;;5096938;28;20569;-71
2022/09/09 07:36:15;;;;;;;6.93;3.43;;;-39.50;99.90;;;;;;5097013;28;20477;-75
2022/09/09 07:38:43;;;;;;;5.37;2.50;;;-40.00;99.90;;;;;;5096679;28;20170;-70
2022/09/09 07:41:12;;;;;;;8.90;3.00;;;-40.00;99.90;;;;;;5096949;28;20228;-70
2022/09/09 07:43:39;;;;;;;7.53;2.83;;;-40.00;99.90;;;;;;5096706;28;20186;-70
2022/09/09 07:46:06;;;;;;;7.40;3.20;;;-40.00;99.90;;;;;;5095496;28;20163;-72
2022/09/09 07:48:32;;;;;;;8.53;3.17;;;-40.00;99.90;;;;;;5096589;28;20178;-72
2022/09/09 07:51:11;;;;;;;15.90;3.27;;;-40.00;99.90;;;;;;5096675;28;20590;-75
2022/09/09 07:53:40;;;;;;;8.93;2.77;;;-40.00;99.90;;;;;;5096410;28;20249;-72
2022/09/09 07:56:12;;;;;;;17.77;5.57;;;-40.00;99.90;;;;;;5096650;28;20221;-73
2022/09/09 07:58:39;;;;;;;9.20;3.77;;;-34.60;99.90;;;;;;5096364;28;20182;-72
2022/09/09 08:01:19;;;;;;;9.07;3.40;;;-38.00;99.90;;;;;;5096367;28;20570;-70
2022/09/09 08:03:46;;;;;;;8.83;3.07;;;-36.30;99.90;;;;;;5096339;28;20190;-76
2022/09/09 08:06:13;;;;;;;7.43;2.70;;;-40.00;99.90;;;;;;5096531;28;20167;-72
2022/09/09 08:08:41;;;;;;;9.10;3.73;;;-39.60;99.90;;;;;;5096189;28;20170;-76
2022/09/09 08:11:11;;;;;;;8.23;3.20;;;-37.40;99.90;;;;;;5095356;28;20578;-74
2022/09/09 08:13:37;;;;;;;11.03;4.57;;;-40.00;99.90;;;;;;5096068;28;20192;-76
2022/09/09 08:16:07;;;;;;;11.10;3.30;;;-40.00;99.90;;;;;;5096231;28;20234;-74
2022/09/09 08:18:33;;;;;;;7.73;2.57;;;-38.70;99.90;;;;;;5096247;28;20163;-75
2022/09/09 08:21:17;;;;;;;6.10;3.17;;;-40.00;99.90;;;;;;5096233;28;20645;-74
2022/09/09 08:23:45;;;;;;;12.03;3.23;;;-40.00;99.90;;;;;;5096159;28;20614;-76
2022/09/09 08:26:23;;;;;;;11.07;2.63;;;-40.00;99.90;;;;;;5094942;28;20244;-72
2022/09/09 08:28:53;;;;;;;9.33;3.07;;;-40.00;99.90;;;;;;5095641;28;20170;-74
2022/09/09 08:31:21;;;;;;;9.77;3.10;;;-40.00;99.90;;;;;;5096069;28;20253;-72
2022/09/09 08:33:48;;;;;;;7.00;2.90;;;-40.00;99.90;;;;;;5095114;28;20174;-73
2022/09/09 08:36:19;;;;;;;6.23;2.13;;;-40.00;99.90;;;;;;5095919;28;20167;-70
2022/09/09 08:38:50;;;;;;;6.40;3.10;;;-40.00;99.90;;;;;;5095995;28;20452;-74
2022/09/09 08:41:46;;;;;;;10.47;2.60;;;-40.00;99.90;;;;;;5095927;28;20525;-72
2022/09/09 08:44:30;;;;;;;8.43;3.33;;;-40.00;99.90;;;;;;5095663;28;20287;-75
2022/09/09 08:47:23;;;;;;;9.23;2.30;;;-40.00;99.90;;;;;;5095925;28;20155;-74
2022/09/09 08:50:16;;;;;;;10.70;2.83;;;-40.00;99.90;;;;;;5095682;28;20246;-76
2022/09/09 08:52:54;;;;;;;7.50;2.53;;;-40.00;99.90;;;;;;5095765;28;20178;-69
2022/09/09 08:55:23;;;;;;;6.33;3.10;;;-40.00;99.90;;;;;;5095668;28;20220;-73
2022/09/09 08:57:55;;;;;;;6.97;2.70;;;-33.70;99.90;;;;;;5095556;28;20246;-72
2022/09/09 09:00:24;;;;;;;5.67;2.90;;;-37.60;99.90;;;;;;5095695;28;20578;-76
2022/09/09 09:03:11;;;;;;;6.50;2.67;;;-40.00;99.90;;;;;;5094680;28;20223;-72
2022/09/09 09:05:50;;;;;;;7.33;2.17;;;-40.00;99.90;;;;;;5095754;28;20208;-72
2022/09/09 09:08:19;;;;;;;7.77;3.23;;;-37.50;99.90;;;;;;5094740;28;20657;-73
2022/09/09 09:10:53;;;;;;;7.67;2.33;;;-39.20;99.90;;;;;;5095547;28;20564;-75
2022/09/09 09:13:22;;;;;;;13.33;2.73;;;-39.40;99.90;;;;;;5095435;28;20167;-76
2022/09/09 09:16:00;;;;;;;8.90;3.20;;;-37.20;99.90;;;;;;5095454;28;20162;-76
2022/09/09 09:18:26;;;;;;;8.73;2.60;;;-36.30;99.90;;;;;;5095656;28;20177;-74
2022/09/09 09:21:03;;;;;;;7.80;3.17;;;-40.00;99.90;;;;;;5095472;28;20573;-77
2022/09/09 09:23:41;;;;;;;12.67;3.23;;;-40.00;99.90;;;;;;5095553;28;20198;-72
2022/09/09 09:26:11;;;;;;;8.10;2.60;;;-37.20;99.90;;;;;;5095262;28;20155;-76
2022/09/09 09:28:36;;;;;;;10.93;3.60;;;-38.90;99.90;;;;;;5095464;28;20186;-76
2022/09/09 09:31:08;;;;;;;5.33;2.27;;;-36.50;99.90;;;;;;5095328;28;20198;-74
2022/09/09 09:33:40;;;;;;;9.87;4.13;;;-34.00;99.90;;;;;;5095440;28;20167;-68
2022/09/09 09:36:08;;;;;;;8.23;2.60;;;-31.50;99.90;;;;;;5095404;28;20174;-69
2022/09/09 09:38:35;;;;;;;8.63;3.43;;;-34.40;99.90;;;;;;5094392;28;20174;-67
2022/09/09 09:41:01;;;;;;;8.50;3.50;;;-32.10;99.90;;;;;;5095043;28;20594;-70
2022/09/09 09:43:29;;;;;;;11.07;3.87;;;-33.00;99.90;;;;;;5095219;28;20247;-68
2022/09/09 09:45:57;;;;;;;9.87;4.33;;;-35.00;99.90;;;;;;5097716;28;20461;-67
2022/09/09 09:48:24;;;;;;;8.40;3.10;;;-30.90;99.90;;;;;;5099164;28;20158;-68
2022/09/09 09:51:00;;;;;;;12.60;3.30;;;-29.00;99.90;;;;;;5098956;28;20610;-68
2022/09/09 09:53:31;;;;;;;16.43;4.37;;;-32.10;99.90;;;;;;5099071;28;20170;-68
2022/09/09 09:56:06;;;;;;;4.80;3.27;;;-37.80;99.90;;;;;;5098547;28;20171;-66
2022/09/09 09:58:50;;;;;;;8.43;2.80;;;-40.00;99.90;;;;;;5098844;28;20219;-67
2022/09/09 10:01:33;;;;;;;7.87;2.70;;;-37.60;99.90;;;;;;5097993;28;20514;-69
2022/09/09 10:04:22;;;;;;;7.30;2.83;;;-36.10;99.90;;;;;;5099086;28;20187;-68
2022/09/09 10:06:49;;;;;;;7.23;3.03;;;-37.80;99.90;;;;;;5098666;28;20163;-67
2022/09/09 10:09:32;;;;;;;9.60;2.97;;;-38.60;99.90;;;;;;5098512;28;20170;-71
2022/09/09 10:12:25;;;;;;;5.57;2.93;;;-37.30;99.90;;;;;;5098577;28;20240;-73
2022/09/09 10:15:06;;;;;;;5.33;3.27;;;-40.00;99.90;;;;;;5098422;28;20171;-70
2022/09/09 10:18:20;;;;;;;6.60;2.87;;;-38.00;99.90;;;;;;5098461;28;20208;-70
2022/09/09 10:20:46;;;;;;;6.07;2.93;;;-35.60;99.90;;;;;;5086130;28;20558;-73
2022/09/09 10:23:25;;;;;;;7.13;3.10;;;-40.00;99.90;;;;;;5098258;28;20269;-72
2022/09/09 10:26:38;;;;;;;6.47;3.70;;;-38.50;99.90;;;;;;5097950;28;20582;-74
2022/09/09 10:29:12;;;;;;;7.70;3.13;;;-37.70;99.90;;;;;;5064107;28;20182;-74
2022/09/09 10:32:00;;;;;;;7.70;3.30;;;-39.10;99.90;;;;;;5095194;28;20316;-73
2022/09/09 10:34:54;;;;;;;9.60;4.30;;;-37.40;99.90;;;;;;5066250;28;20508;-73
2022/09/09 10:37:42;;;;;;;4.50;2.73;;;-34.20;99.90;;;;;;5098336;28;20163;-75
2022/09/09 10:40:30;;;;;;;7.37;2.43;;;-40.00;99.90;;;;;;5098170;28;20245;-74
2022/09/09 10:43:23;;;;;;;5.90;2.67;;;-40.00;99.90;;;;;;5096964;28;20163;-74
2022/09/09 10:46:06;;;;;;;6.33;3.00;;;-40.00;99.90;;;;;;5068677;28;20240;-73
2022/09/09 10:48:38;;;;;;;5.80;2.90;;;-40.00;99.90;;;;;;5096934;28;20574;-75
2022/09/09 10:51:14;;;;;;;7.57;2.53;;;-36.60;99.90;;;;;;5097850;28;20187;-77
2022/09/09 10:53:49;;;;;;;4.60;2.77;;;-37.40;99.90;;;;;;5097698;28;20440;-71
2022/09/09 10:56:18;;;;;;;5.57;2.33;;;-40.00;99.90;;;;;;5097130;28;20167;-68
2022/09/09 10:58:48;;;;;;;8.33;2.47;;;-40.00;99.90;;;;;;5097505;28;20228;-68
2022/09/09 11:01:39;;;;;;;11.60;3.40;;;-40.00;99.90;;;;;;5096880;28;20179;-73
2022/09/09 11:04:16;;;;;;;6.63;2.37;;;-40.00;99.90;;;;;;5096553;28;20191;-74
2022/09/09 11:06:47;;;;;;;7.43;2.67;;;-40.00;99.90;;;;;;5096524;28;20212;-70
2022/09/09 11:09:21;;;;;;;4.13;2.43;;;-40.00;99.90;;;;;;5097409;28;20167;-75
2022/09/09 11:11:55;;;;;;;5.27;1.73;;;-40.00;99.90;;;;;;5097647;28;20562;-70
2022/09/09 11:14:45;;;;;;;10.13;3.43;;;-40.00;99.90;;;;;;5097440;28;20163;-69
2022/09/09 11:17:46;;;;;;;6.33;2.63;;;-40.00;99.90;;;;;;5097252;28;20163;-71
2022/09/09 11:20:14;;;;;;;4.93;2.00;;;-40.00;99.90;;;;;;5097436;28;20605;-67
2022/09/09 11:22:45;;;;;;;5.47;2.10;;;-40.00;99.90;;;;;;5097112;28;20163;-67
2022/09/09 11:25:21;;;;;;;5.13;1.87;;;-40.00;99.90;;;;;;5097027;28;20202;-68
2022/09/09 11:28:07;;;;;;;4.60;2.03;;;-40.00;99.90;;;;;;5096119;28;20580;-70
2022/09/09 11:31:11;;;;;;;9.53;1.80;;;-40.00;99.90;;;;;;5097491;28;20263;-68
2022/09/09 11:34:02;;;;;;;5.83;2.70;;;-40.00;99.90;;;;;;5081178;28;20214;-68
2022/09/09 11:36:49;;;;;;;5.13;1.83;;;-40.00;99.90;;;;;;5096724;28;20166;-70
2022/09/09 11:39:30;;;;;;;3.63;1.47;;;-40.00;99.90;;;;;;5096926;28;20213;-71
2022/09/09 11:42:18;;;;;;;4.40;1.93;;;-40.00;99.90;;;;;;5096942;28;20638;-67
2022/09/09 11:44:44;;;;;;;8.07;2.03;;;-40.00;99.90;;;;;;5095429;28;20202;-68
2022/09/09 11:47:36;;;;;;;4.50;1.53;;;-40.00;99.90;;;;;;5096786;28;20173;-70
2022/09/09 11:50:27;;;;;;;3.80;2.17;;;-40.00;99.90;;;;;;5094516;28;20676;-70
2022/09/09 11:53:24;;;;;;;5.67;1.60;;;-40.00;99.90;;;;;;5096363;28;20163;-71
2022/09/09 11:56:13;;;;;;;5.77;1.97;;;-40.00;99.90;;;;;;5096204;28;20236;-74
2022/09/09 11:58:42;;;;;;;3.50;2.70;;;-40.00;99.90;;;;;;5096356;28;20161;-71
2022/09/09 12:01:29;;;;;;;6.00;2.50;;;-40.00;99.90;;;;;;5096477;28;20213;-72
2022/09/09 12:04:28;;;;;;;4.47;2.00;;;-40.00;99.90;;;;;;5096445;28;20202;-69
2022/09/09 12:07:24;;;;;;;4.63;1.90;;;-40.00;99.90;;;;;;5096158;28;20192;-68
2022/09/09 12:09:56;;;;;;;7.17;2.17;;;-40.00;99.90;;;;;;5095334;28;20220;-73
2022/09/09 12:12:24;;;;;;;3.87;1.63;;;-40.00;99.90;;;;;;5096319;28;20309;-72
2022/09/09 12:15:08;;;;;;;4.57;1.77;;;-40.00;99.90;;;;;;5096204;28;20629;-71
2022/09/09 12:17:46;;;;;;;4.90;2.00;;;-40.00;99.90;;;;;;5096261;28;20170;-70
2022/09/09 12:20:17;;;;;;;2.97;1.20;;;-40.00;99.90;;;;;;5095800;28;20171;-70
2022/09/09 12:22:46;;;;;;;4.10;1.87;;;-40.00;99.90;;;;;;5096234;28;20167;-69
2022/09/09 12:25:21;;;;;;;4.47;1.77;;;-40.00;99.90;;;;;;5095933;28;20253;-70
2022/09/09 12:28:06;;;;;;;6.33;2.30;;;-40.00;99.90;;;;;;5096184;28;20606;-73
2022/09/09 12:30:49;;;;;;;5.27;2.47;;;-40.00;99.90;;;;;;5096454;28;20175;-68
2022/09/09 12:33:18;;;;;;;5.00;1.70;;;-40.00;99.90;;;;;;5096100;28;20182;-72
2022/09/09 12:35:51;;;;;;;5.07;1.57;;;-40.00;99.90;;;;;;5095633;28;20167;-69
2022/09/09 12:38:33;;;;;;;6.33;2.27;;;-40.00;99.90;;;;;;5095968;28;20159;-70
2022/09/09 12:41:00;;;;;;;3.40;1.47;;;-40.00;99.90;;;;;;5095937;28;20212;-71
2022/09/09 12:43:27;;;;;;;5.43;2.07;;;-40.00;99.90;;;;;;5094861;28;20197;-69
2022/09/09 12:46:10;;;;;;;6.47;2.97;;;-40.00;99.90;;;;;;5095886;28;20163;-69
2022/09/09 12:48:40;;;;;;;5.43;1.33;;;-40.00;99.90;;;;;;5095849;28;20171;-69
2022/09/09 12:51:18;;;;;;;1.47;1.00;;;-40.00;99.90;;;;;;5095318;28;20191;-72
2022/09/09 12:53:45;;;;;;;5.30;1.07;;;-40.00;99.90;;;;;;5095907;28;20593;-68
2022/09/09 12:56:20;;;;;;;4.50;1.87;;;-40.00;99.90;;;;;;5095647;28;20662;-72
2022/09/09 12:58:51;;;;;;;8.37;2.47;;;-40.00;99.90;;;;;;5094501;28;20170;-68
2022/09/09 13:01:29;;;;;;;2.37;1.13;;;-40.00;99.90;;;;;;5094628;28;20201;-69
2022/09/09 13:03:55;;;;;;;3.97;1.20;;;-40.00;99.90;;;;;;5095425;28;20205;-68